Saint-Anselme, Canada
Current Conditions -  °F | °C
As of 2:17 PM on Friday 28 Nov 2014 (Local Time) from CYQB Reporting Station
Light Snow Light Snow  
Wind Chill: 23°   Ceiling: 2500
Heat Index: 23°   Visibility: 2.5mi
Dew Point: 16°   Wind: 0mph
Humidity: 74%   Direction: NA
Pressure: 30.03"   Gusts: NA
Location:  46.62°N, 70.97°W
Report Text: CYQB 281917Z 00000KT 2 1/2SM -SN SCT017 OVC025 M05/M09 A3003 RMK SN1SC2SC5 SLP174
Loading
Personal Weather Stations






























Interactive Weather Map New forecast layout! Learn more

10-Day Weather Forecast

Advertisements
Track Severe Weather on mobile